KOFP

Hanover County Municipal Airport

Richmond/Ashland, Virginia, USA
METAR KOFP 261254Z AUTO 23009KT 10SM CLR 26/20 A2993 RMK AO2 SLP133 T02610200
Observed Flight Rules
May-26 @ 12:54 UTC (39 minutes ago) Visual Flight Rules
Wind Visibility Clouds
230° at 9 knots 10 miles
  • Clear skies
Temperatures Readings
Current 26°C / 79°F
Dewpoint 20°C / 68°F
Humidity 70%
Altimeter 29.93" Hg
Pressure 1013.3 hPa
Elevation 62
METAR KOFP 261254Z AUTO 23009KT 10SM CLR 26/20 A2993 RMK AO2 SLP133 T02610200
Observed Flight Rules
May-26 @ 12:54 UTC
(39 minutes ago)
VFR
Wind Visibility
230° at 9 knots 10 miles
Clouds
  • Clear skies
Temperature Dewpoint
26°C / 79°F 20°C / 68°F
Humidity Altimeter Pressure
70% 29.93" Hg 1013.3 hPa